Sant Julià de Vilatorta





Hora UTC 04:40
Temperatura 8.2 ºC
Humitat 94.9 %
Pressió 1017.6 hPa
Pluja 0.0 mm
Velocitat vent 1.8 km/h
Direcció vent SSE
Radiació solar 0.0 W/m²

Dades diàries 2020-09-29



Hora UTC (hivern +1h; estiu +2h)
Temperatura (ºC) Humitat (%) Pressió (hPa) Velocitat vent (km/h) Precipitació (mm) Radiació solar (W/m²)
Hora UTC Aire Humitat Pressió Vel. Dir. Vel. Max Dir. Intent. màx 5 min. Rad. Sol.
00:05 8.8 93.3 1017.9 1.9 SSE 1.9 SSE 0.0 0.0
00:10 8.7 93.2 1017.9 1.3 ESE 2.6 SE 0.0 0.0
00:15 8.6 93.4 1017.9 2.2 SE 4.3 SSE 0.0 0.0
00:20 8.7 93.6 1018.0 2.6 ESE 5.0 SSE 0.0 0.0
00:25 8.6 93.7 1017.9 3.3 ESE 4.5 ENE 0.0 0.0
00:30 8.6 93.8 1017.9 2.2 SSE 4.0 S 0.0 0.0
00:35 8.6 93.7 1017.9 1.5 SE 2.1 ESE 0.0 0.0
00:40 8.5 93.8 1017.8 2.1 SSE 4.2 SSE 0.0 0.0
00:45 8.6 94.0 1017.8 2.1 SSE 4.0 SSE 0.0 0.0
00:50 8.6 93.8 1017.8 1.4 E 3.4 ESE 0.0 0.0
00:55 8.5 93.9 1017.8 1.6 SSE 3.2 SSE 0.0 0.0
01:00 8.5 94.3 1017.8 3.0 SSE 4.3 SSE 0.0 0.0
01:05 8.5 94.2 1017.8 1.5 SE 2.4 SSE 0.0 0.0
01:10 8.5 94.0 1017.7 1.2 ESE 1.7 SE 0.0 0.0
01:15 8.4 94.3 1017.8 2.1 SSE 3.6 SSE 0.0 0.0
01:20 8.5 94.4 1017.7 1.1 SE 2.4 S 0.0 0.0
01:25 8.4 94.3 1017.7 2.3 SSE 3.9 SSE 0.0 0.0
01:30 8.4 94.3 1017.7 1.0 SE 1.5 E 0.0 0.0
01:35 8.3 94.1 1017.7 0.7 SSE 1.3 ESE 0.0 0.0
01:40 8.2 94.3 1017.7 1.1 SE 2.0 SSE 0.0 0.1
01:45 8.2 94.9 1017.7 1.3 S 2.3 S 0.0 0.0
01:50 8.2 95.0 1017.7 3.0 SSE 3.9 SSE 0.0 0.0
01:55 8.2 95.0 1017.6 1.8 SE 3.2 SE 0.0 0.0
02:00 8.1 94.8 1017.6 1.5 SE 3.1 SSE 0.0 0.0
02:05 8.0 94.9 1017.7 1.8 S 3.0 SSE 0.0 0.0
02:10 8.0 95.0 1017.8 1.9 S 5.4 SSW 0.0 0.0
02:15 7.8 94.9 1017.8 1.5 SSW 4.1 SSW 0.0 0.0
02:20 7.8 95.1 1017.9 2.5 SSE 4.1 SE 0.0 0.0
02:25 7.8 95.3 1017.8 2.3 ESE 4.1 E 0.0 0.0
02:30 7.8 95.4 1017.7 2.4 SE 4.2 ESE 0.0 0.0
02:35 7.9 95.7 1017.7 2.1 SE 4.3 SSE 0.0 0.0
02:40 7.8 95.6 1017.7 2.7 E 4.5 E 0.0 0.0
02:45 7.8 95.9 1017.6 3.0 ESE 5.7 ESE 0.0 0.0
02:50 7.8 96.1 1017.6 1.4 SSE 3.0 SSE 0.0 0.0
02:55 7.7 96.0 1017.6 2.0 ESE 4.9 ESE 0.0 0.0
03:00 7.7 96.2 1017.6 2.7 E 5.2 E 0.0 0.0
03:05 7.6 96.2 1017.5 3.2 ESE 5.7 ESE 0.0 0.0
03:10 7.7 96.4 1017.6 2.1 SE 3.7 ESE 0.0 0.0
03:15 7.7 96.5 1017.6 1.9 ESE 3.3 E 0.0 0.0
03:20 7.7 96.4 1017.6 2.3 SE 3.2 ESE 0.0 0.0
03:25 7.6 96.3 1017.5 2.2 SSE 3.2 SSE 0.0 0.0
03:30 7.6 96.2 1017.5 2.9 SSE 4.3 SSE 0.0 0.0
03:35 7.6 96.1 1017.5 2.2 SE 3.2 SE 0.0 0.2
03:40 7.6 95.8 1017.5 1.2 ESE 2.3 ESE 0.0 0.2
03:45 7.7 95.8 1017.5 1.6 SE 2.4 ESE 0.0 0.0
03:50 7.8 95.8 1017.5 2.5 SSE 4.1 S 0.0 0.0
03:55 7.9 95.6 1017.5 1.4 S 2.2 SSW 0.0 0.1
04:00 7.9 95.5 1017.5 1.2 SE 2.4 SSE 0.0 0.0
04:05 8.0 95.2 1017.5 2.1 SSE 3.9 SSE 0.0 0.0
04:10 8.0 94.8 1017.5 1.4 SSE 2.5 S 0.0 0.0
04:15 7.9 94.7 1017.6 1.3 ENE 1.9 ENE 0.0 0.0
04:20 7.9 94.8 1017.6 1.1 SSW 1.7 SSW 0.0 0.0
04:25 7.9 95.0 1017.7 0.5 S 1.0 SSW 0.0 0.0
04:30 8.0 95.1 1017.7 1.1 SSE 2.1 SE 0.0 0.0
04:35 8.1 95.1 1017.7 1.5 SE 2.2 SE 0.0 0.0
04:40 8.2 94.9 1017.6 1.8 SSE 2.7 SE 0.0 0.0
Màxima 8.8 96.5 1018.0 3.3 ESE 5.7 ESE 0.0 0.2
Mínima 7.5 93.2 1017.5
Total 0.0